createdAt,value
2022-09-11T00:00:03.651Z,34.72
2022-09-11T00:01:17.117Z,38.63
2022-09-11T00:02:19.327Z,36.05
2022-09-11T00:03:24.646Z,36.10
2022-09-11T00:04:27.583Z,34.42
2022-09-11T00:05:31.283Z,34.15
2022-09-11T00:06:34.670Z,38.03
2022-09-11T00:07:41.706Z,31.48
2022-09-11T00:08:48.662Z,35.15
2022-09-11T00:09:50.949Z,32.28
2022-09-11T00:10:57.243Z,35.55
2022-09-11T00:12:01.959Z,34.55
2022-09-11T00:13:07.507Z,34.58
2022-09-11T00:14:15.171Z,34.47
2022-09-11T00:15:20.240Z,39.10
2022-09-11T00:16:29.140Z,45.47
2022-09-11T00:17:32.264Z,42.58
2022-09-11T00:18:37.183Z,43.60
2022-09-11T00:19:42.900Z,39.45
2022-09-11T00:20:51.234Z,42.05
2022-09-11T00:21:57.829Z,46.08
2022-09-11T00:23:05.272Z,47.25
2022-09-11T00:24:14.044Z,39.95
2022-09-11T00:25:16.613Z,36.85
2022-09-11T00:26:20.952Z,41.85
2022-09-11T00:27:22.991Z,42.85
2022-09-11T00:28:26.059Z,48.53
2022-09-11T00:29:32.791Z,36.70
2022-09-11T00:30:36.854Z,39.55
2022-09-11T00:31:44.091Z,32.40
2022-09-11T00:32:50.151Z,41.47
2022-09-11T00:33:53.147Z,41.90
2022-09-11T00:34:55.714Z,38.90
2022-09-11T00:36:08.319Z,40.03
2022-09-11T00:37:11.447Z,35.88
2022-09-11T00:38:17.257Z,38.15
2022-09-11T00:39:24.245Z,37.85
2022-09-11T00:40:27.752Z,36.80
2022-09-11T00:41:36.567Z,39.33
2022-09-11T00:42:38.683Z,36.40
2022-09-11T00:43:55.622Z,40.70
2022-09-11T00:45:04.481Z,40.30
2022-09-11T00:47:13.351Z,40.70
2022-09-11T00:48:20.496Z,40.97
2022-09-11T00:49:42.483Z,40.78
2022-09-11T00:50:48.743Z,39.63
2022-09-11T00:51:59.762Z,41.80
2022-09-11T00:53:11.663Z,39.90
2022-09-11T00:54:22.628Z,42.03
2022-09-11T00:55:29.320Z,39.00
2022-09-11T00:56:36.475Z,38.65
2022-09-11T00:58:26.223Z,50.53
2022-09-11T00:59:31.407Z,40.15
2022-09-11T01:00:35.570Z,50.75
2022-09-11T01:01:37.671Z,41.92
2022-09-11T01:02:43.192Z,42.35
2022-09-11T01:03:47.511Z,39.80
2022-09-11T01:04:51.299Z,38.47
2022-09-11T01:05:54.910Z,39.08
2022-09-11T01:07:08.128Z,41.63
2022-09-11T01:08:10.799Z,42.60
2022-09-11T01:09:16.207Z,39.88
2022-09-11T01:10:19.387Z,42.28
2022-09-11T01:11:41.932Z,43.40
2022-09-11T01:13:23.239Z,41.80
2022-09-11T01:14:32.453Z,43.13
2022-09-11T01:15:54.017Z,42.70
2022-09-11T01:17:26.259Z,42.17
2022-09-11T01:18:43.076Z,39.63
2022-09-11T01:20:06.569Z,43.70
2022-09-11T01:21:35.811Z,40.13
2022-09-11T01:22:42.482Z,44.88
2022-09-11T01:24:09.572Z,39.63
2022-09-11T01:25:38.294Z,45.78
2022-09-11T01:27:05.036Z,39.83
2022-09-11T01:28:15.950Z,49.95
2022-09-11T01:29:25.208Z,43.65
2022-09-11T01:30:36.111Z,44.92
2022-09-11T01:31:49.596Z,43.08
2022-09-11T01:33:25.246Z,47.25
2022-09-11T01:34:45.620Z,46.78
2022-09-11T01:35:56.520Z,46.97
2022-09-11T01:37:08.471Z,45.78
2022-09-11T01:38:14.947Z,51.00
2022-09-11T01:39:22.632Z,48.35
2022-09-11T01:40:31.672Z,53.63
2022-09-11T01:42:02.848Z,51.67
2022-09-11T01:44:04.540Z,58.95
2022-09-11T01:45:07.889Z,52.78
2022-09-11T01:46:18.548Z,50.58
2022-09-11T01:47:24.402Z,54.50
2022-09-11T01:48:39.165Z,52.72
2022-09-11T01:49:51.806Z,56.42
2022-09-11T01:51:01.138Z,51.38
2022-09-11T01:52:09.330Z,47.65
2022-09-11T01:53:17.382Z,52.03
2022-09-11T01:54:26.285Z,49.55
2022-09-11T01:55:42.987Z,50.83
2022-09-11T01:56:52.681Z,53.15
2022-09-11T01:58:26.486Z,50.25
2022-09-11T01:59:45.929Z,53.03
2022-09-11T02:00:54.180Z,56.42
2022-09-11T02:02:09.973Z,52.45
2022-09-11T02:03:25.378Z,53.08
2022-09-11T02:04:51.911Z,49.50
2022-09-11T02:06:03.684Z,53.20
2022-09-11T02:07:28.360Z,51.00
2022-09-11T02:08:54.759Z,55.03
2022-09-11T02:10:15.705Z,55.70
2022-09-11T02:11:20.764Z,54.50
2022-09-11T02:12:31.280Z,53.70
2022-09-11T02:14:06.716Z,51.80
2022-09-11T02:15:20.356Z,48.42
2022-09-11T02:16:32.873Z,55.15
2022-09-11T02:17:46.644Z,48.65
2022-09-11T02:19:03.791Z,47.92
2022-09-11T02:20:09.323Z,52.03
2022-09-11T02:21:12.026Z,51.00
2022-09-11T02:22:18.731Z,51.13
2022-09-11T02:23:23.565Z,47.08
2022-09-11T02:24:30.093Z,49.65
2022-09-11T02:25:36.147Z,55.38
2022-09-11T02:26:48.539Z,50.97
2022-09-11T02:29:08.626Z,48.40
2022-09-11T02:30:11.705Z,55.75
2022-09-11T02:31:14.753Z,48.42
2022-09-11T02:32:19.529Z,47.47
2022-09-11T02:33:38.875Z,50.67
2022-09-11T02:34:45.531Z,50.72
2022-09-11T02:35:53.266Z,47.85
2022-09-11T02:37:20.661Z,53.38
2022-09-11T02:38:42.890Z,56.78
2022-09-11T02:39:48.747Z,48.95
2022-09-11T02:41:10.654Z,52.58
2022-09-11T02:42:24.696Z,46.78
2022-09-11T02:44:10.080Z,50.15
2022-09-11T02:45:20.106Z,51.05
2022-09-11T02:46:32.543Z,56.10
2022-09-11T02:47:57.416Z,61.28
2022-09-11T02:49:17.149Z,54.47
2022-09-11T02:50:46.698Z,51.50
2022-09-11T02:52:11.820Z,52.92
2022-09-11T02:53:49.685Z,49.35
2022-09-11T02:55:11.820Z,55.20
2022-09-11T02:56:40.721Z,51.20
2022-09-11T02:57:51.831Z,60.80
2022-09-11T02:58:57.243Z,51.30
2022-09-11T03:00:04.079Z,58.13
2022-09-11T03:01:10.498Z,50.38
2022-09-11T03:02:18.415Z,50.03
2022-09-11T03:03:24.352Z,51.72
2022-09-11T03:04:35.679Z,51.28
2022-09-11T03:05:40.374Z,52.67
2022-09-11T03:06:43.311Z,48.50
2022-09-11T03:07:45.544Z,57.50
2022-09-11T03:08:49.166Z,51.45
2022-09-11T03:09:53.004Z,47.28
2022-09-11T03:10:57.884Z,53.80
2022-09-11T03:12:02.334Z,53.15
2022-09-11T03:13:14.992Z,52.15
2022-09-11T03:14:21.708Z,49.00
2022-09-11T03:15:25.070Z,52.63
2022-09-11T03:16:28.871Z,50.17
2022-09-11T03:17:31.620Z,53.42
2022-09-11T03:18:34.353Z,50.65
2022-09-11T03:19:36.433Z,49.63
2022-09-11T03:20:40.307Z,51.72
2022-09-11T03:21:44.188Z,51.25
2022-09-11T03:22:46.254Z,51.50
2022-09-11T03:23:49.725Z,52.05
2022-09-11T03:24:52.270Z,51.08
2022-09-11T03:25:59.020Z,52.33
2022-09-11T03:27:01.471Z,49.35
2022-09-11T03:28:05.375Z,52.03
2022-09-11T03:29:09.439Z,51.75
2022-09-11T03:30:12.059Z,50.20
2022-09-11T03:31:15.582Z,57.55
2022-09-11T03:32:17.715Z,56.42
2022-09-11T03:33:19.970Z,53.72
2022-09-11T03:34:28.070Z,54.33
2022-09-11T03:35:30.037Z,53.90
2022-09-11T03:36:34.746Z,52.53
2022-09-11T03:37:38.844Z,55.00
2022-09-11T03:38:45.575Z,57.95
2022-09-11T03:39:51.387Z,53.38
2022-09-11T03:40:56.742Z,49.45
2022-09-11T03:41:58.918Z,50.20
2022-09-11T03:43:02.941Z,50.92
2022-09-11T03:44:05.702Z,50.08
2022-09-11T03:45:10.058Z,58.70
2022-09-11T03:46:12.000Z,50.22
2022-09-11T03:47:14.811Z,51.08
2022-09-11T03:48:16.880Z,58.05
2022-09-11T03:49:20.851Z,56.40
2022-09-11T03:50:24.871Z,53.45
2022-09-11T03:51:27.287Z,53.45
2022-09-11T03:52:31.277Z,53.08
2022-09-11T03:53:35.031Z,51.42
2022-09-11T03:54:39.906Z,54.90
2022-09-11T03:55:45.627Z,54.95
2022-09-11T03:56:47.671Z,46.70
2022-09-11T03:57:54.850Z,52.20
2022-09-11T03:59:03.015Z,46.88
2022-09-11T04:00:07.873Z,42.17
2022-09-11T04:01:23.333Z,48.67
2022-09-11T04:02:31.434Z,48.65
2022-09-11T04:03:35.010Z,51.25
2022-09-11T04:04:38.297Z,54.15
2022-09-11T04:05:44.593Z,57.63
2022-09-11T04:06:46.893Z,47.45
2022-09-11T04:07:49.122Z,42.40
2022-09-11T04:08:56.157Z,45.17
2022-09-11T04:09:59.860Z,43.90
2022-09-11T04:11:08.259Z,39.58
2022-09-11T04:12:12.979Z,40.78
2022-09-11T04:13:16.859Z,36.97
2022-09-11T04:14:19.509Z,40.83
2022-09-11T04:15:25.209Z,37.03
2022-09-11T04:16:28.083Z,38.63
2022-09-11T04:17:31.043Z,34.88
2022-09-11T04:18:37.431Z,33.58
2022-09-11T04:19:41.192Z,34.22
2022-09-11T04:20:44.759Z,33.80
2022-09-11T04:21:48.469Z,36.25
2022-09-11T04:22:54.455Z,31.98
2022-09-11T04:24:00.058Z,28.52
2022-09-11T04:25:07.124Z,31.05
2022-09-11T04:26:21.498Z,32.60
2022-09-11T04:27:28.921Z,34.58
2022-09-11T04:28:33.168Z,36.70
2022-09-11T04:29:35.249Z,32.30
2022-09-11T04:30:39.878Z,30.98
2022-09-11T04:31:43.531Z,28.13
2022-09-11T04:32:50.527Z,29.08
2022-09-11T04:33:57.378Z,30.58
2022-09-11T04:35:02.810Z,31.20
2022-09-11T04:36:17.628Z,28.48
2022-09-11T04:37:20.464Z,25.55
2022-09-11T04:38:24.072Z,27.63
2022-09-11T04:39:28.030Z,26.90
2022-09-11T04:40:30.040Z,24.20
2022-09-11T04:41:32.393Z,28.42
2022-09-11T04:42:36.567Z,27.50
2022-09-11T04:43:40.508Z,30.70
2022-09-11T04:44:44.185Z,27.13
2022-09-11T04:45:46.393Z,34.33
2022-09-11T04:46:48.748Z,31.92
2022-09-11T04:47:53.113Z,29.38
2022-09-11T04:48:59.433Z,26.63
2022-09-11T04:50:02.659Z,25.38
2022-09-11T04:51:08.041Z,27.58
2022-09-11T04:52:10.557Z,27.95
2022-09-11T04:53:13.982Z,34.03
2022-09-11T04:54:21.378Z,24.65
2022-09-11T04:55:23.955Z,28.83
2022-09-11T04:56:31.566Z,31.42
2022-09-11T04:57:34.012Z,23.58
2022-09-11T04:58:38.233Z,27.00
2022-09-11T04:59:40.195Z,25.25
2022-09-11T05:00:47.765Z,27.55
2022-09-11T05:01:50.425Z,26.67
2022-09-11T05:02:54.984Z,24.55
2022-09-11T05:03:57.563Z,26.15
2022-09-11T05:05:03.020Z,23.30
2022-09-11T05:06:08.806Z,26.70
2022-09-11T05:07:13.763Z,22.40
2022-09-11T05:08:19.129Z,28.15
2022-09-11T05:09:23.073Z,24.75
2022-09-11T05:10:27.413Z,23.52
2022-09-11T05:11:30.400Z,29.58
2022-09-11T05:12:32.621Z,24.13
2022-09-11T05:13:36.609Z,24.27
2022-09-11T05:14:39.751Z,23.05
2022-09-11T05:15:41.779Z,26.42
2022-09-11T05:16:45.143Z,24.50
2022-09-11T05:17:48.622Z,26.40
2022-09-11T05:18:54.246Z,23.17
2022-09-11T05:19:59.070Z,22.15
2022-09-11T05:21:06.486Z,20.35
2022-09-11T05:22:09.177Z,22.48
2022-09-11T05:23:15.066Z,26.90
2022-09-11T05:24:17.652Z,21.02
2022-09-11T05:25:19.740Z,21.40
2022-09-11T05:26:27.125Z,24.35
2022-09-11T05:27:30.199Z,19.90
2022-09-11T05:28:33.796Z,21.70
2022-09-11T05:29:37.124Z,22.10
2022-09-11T05:30:44.989Z,20.90
2022-09-11T05:31:47.950Z,20.67
2022-09-11T05:32:56.390Z,25.05
2022-09-11T05:34:02.171Z,19.45
2022-09-11T05:35:05.458Z,21.77
2022-09-11T05:36:07.849Z,21.10
2022-09-11T05:37:09.979Z,19.17
2022-09-11T05:38:18.804Z,21.80
2022-09-11T05:39:20.903Z,18.48
2022-09-11T05:40:23.389Z,19.60
2022-09-11T05:41:33.437Z,21.52
2022-09-11T05:42:35.470Z,25.15
2022-09-11T05:43:38.830Z,23.55
2022-09-11T05:44:40.907Z,23.85
2022-09-11T05:45:44.375Z,19.92
2022-09-11T05:46:47.201Z,20.27
2022-09-11T05:47:51.381Z,18.65
2022-09-11T05:48:56.231Z,20.73
2022-09-11T05:49:58.352Z,19.33
2022-09-11T05:51:07.161Z,17.23
2022-09-11T05:52:10.585Z,16.48
2022-09-11T05:53:12.664Z,22.35
2022-09-11T05:54:15.343Z,22.48
2022-09-11T05:55:17.378Z,22.05
2022-09-11T05:56:22.625Z,25.45
2022-09-11T05:57:26.564Z,19.15
2022-09-11T05:58:32.566Z,19.58
2022-09-11T05:59:34.888Z,24.05
2022-09-11T06:00:38.385Z,20.42
2022-09-11T06:01:40.647Z,17.13
2022-09-11T06:02:51.061Z,22.48
2022-09-11T06:03:56.267Z,19.52
2022-09-11T06:05:03.116Z,19.67
2022-09-11T06:06:09.628Z,20.52
2022-09-11T06:07:12.716Z,18.95
2022-09-11T06:08:19.728Z,21.80
2022-09-11T06:09:21.929Z,21.08
2022-09-11T06:10:24.295Z,20.67
2022-09-11T06:11:27.112Z,22.55
2022-09-11T06:12:29.490Z,20.25
2022-09-11T06:13:35.913Z,23.67
2022-09-11T06:14:38.279Z,19.67
2022-09-11T06:15:47.091Z,19.38
2022-09-11T06:17:52.254Z,20.05
2022-09-11T06:18:54.399Z,19.20
2022-09-11T06:19:57.223Z,21.60
2022-09-11T06:21:07.341Z,24.17
2022-09-11T06:22:16.326Z,18.95
2022-09-11T06:23:19.842Z,18.23
2022-09-11T06:24:21.890Z,18.25
2022-09-11T06:25:25.438Z,18.15
2022-09-11T06:26:29.583Z,21.85
2022-09-11T06:27:32.405Z,16.92
2022-09-11T06:28:36.011Z,19.00
2022-09-11T06:29:38.487Z,22.08
2022-09-11T06:30:42.173Z,19.20
2022-09-11T06:31:46.109Z,19.15
2022-09-11T06:32:49.195Z,21.05
2022-09-11T06:33:51.745Z,20.30
2022-09-11T06:34:54.680Z,21.08
2022-09-11T06:36:00.943Z,19.77
2022-09-11T06:37:03.238Z,20.83
2022-09-11T06:38:06.705Z,21.80
2022-09-11T06:39:09.056Z,23.80
2022-09-11T06:40:13.423Z,20.90
2022-09-11T06:41:16.897Z,21.70
2022-09-11T06:42:19.457Z,20.63
2022-09-11T06:43:24.652Z,22.23
2022-09-11T06:44:27.565Z,22.90
2022-09-11T06:45:33.928Z,28.05
2022-09-11T06:46:36.270Z,21.27
2022-09-11T06:47:38.925Z,21.80
2022-09-11T06:48:51.240Z,24.40
2022-09-11T06:49:59.302Z,24.00
2022-09-11T06:51:28.405Z,21.05
2022-09-11T06:52:35.558Z,21.95
2022-09-11T06:54:01.131Z,21.92
2022-09-11T06:55:13.551Z,20.25
2022-09-11T06:56:22.428Z,27.15
2022-09-11T06:57:25.631Z,20.88
2022-09-11T06:58:29.473Z,21.95
2022-09-11T06:59:32.336Z,19.73
2022-09-11T07:00:36.799Z,21.88
2022-09-11T07:01:39.862Z,18.42
2022-09-11T07:02:42.610Z,19.60
2022-09-11T07:03:48.858Z,17.80
2022-09-11T07:04:53.389Z,16.55
2022-09-11T07:05:58.031Z,19.75
2022-09-11T07:07:00.097Z,21.98
2022-09-11T07:08:03.333Z,16.45
2022-09-11T07:09:11.945Z,18.60
2022-09-11T07:10:24.224Z,16.80
2022-09-11T07:11:34.548Z,16.73
2022-09-11T07:12:38.971Z,15.98
2022-09-11T07:13:42.089Z,19.00
2022-09-11T07:14:44.234Z,17.20
2022-09-11T07:16:03.795Z,16.17
2022-09-11T07:17:08.862Z,15.27
2022-09-11T07:18:11.593Z,14.60
2022-09-11T07:19:13.838Z,16.55
2022-09-11T07:20:17.747Z,18.50
2022-09-11T07:21:23.186Z,12.25
2022-09-11T07:22:29.815Z,15.52
2022-09-11T07:23:31.975Z,12.60
2022-09-11T07:24:34.155Z,12.13
2022-09-11T07:25:40.822Z,11.65
2022-09-11T07:26:43.113Z,9.77
2022-09-11T07:28:04.700Z,12.88
2022-09-11T07:29:06.773Z,12.77
2022-09-11T07:30:11.944Z,10.98
2022-09-11T07:31:20.910Z,11.45
2022-09-11T07:32:27.194Z,10.68
2022-09-11T07:33:31.344Z,8.93
2022-09-11T07:34:38.336Z,7.20
2022-09-11T07:35:43.724Z,10.98
2022-09-11T07:36:51.848Z,7.75
2022-09-11T07:37:58.682Z,12.50
2022-09-11T07:39:03.667Z,8.60
2022-09-11T07:40:32.406Z,11.30
2022-09-11T07:41:36.097Z,8.82
2022-09-11T07:42:44.608Z,10.55
2022-09-11T07:43:48.385Z,10.32
2022-09-11T07:44:50.883Z,9.68
2022-09-11T07:45:54.093Z,11.15
2022-09-11T07:46:56.101Z,8.93
2022-09-11T07:48:00.376Z,10.80
2022-09-11T07:49:03.120Z,9.52
2022-09-11T07:50:06.409Z,7.75
2022-09-11T07:51:14.068Z,10.63
2022-09-11T07:52:18.627Z,10.23
2022-09-11T07:53:26.373Z,9.63
2022-09-11T07:54:29.243Z,7.88
2022-09-11T07:55:34.808Z,7.47
2022-09-11T07:56:38.584Z,8.38
2022-09-11T07:57:42.720Z,8.95
2022-09-11T07:58:46.151Z,7.78
2022-09-11T07:59:48.320Z,8.13
2022-09-11T08:00:58.335Z,7.25
2022-09-11T08:02:00.540Z,6.55
2022-09-11T08:03:04.376Z,8.82
2022-09-11T08:04:12.334Z,8.98
2022-09-11T08:05:15.728Z,11.15
2022-09-11T08:06:22.344Z,7.95
2022-09-11T08:07:26.382Z,6.32
2022-09-11T08:08:29.917Z,9.25
2022-09-11T08:09:33.308Z,11.55
2022-09-11T08:10:41.051Z,8.88
2022-09-11T08:11:48.965Z,7.43
2022-09-11T08:12:56.800Z,7.50
2022-09-11T08:14:01.501Z,8.40
2022-09-11T08:15:03.848Z,8.73
2022-09-11T08:16:06.603Z,12.20
2022-09-11T08:17:09.035Z,8.80
2022-09-11T08:18:12.990Z,9.40
2022-09-11T08:19:21.763Z,8.30
2022-09-11T08:20:28.876Z,7.78
2022-09-11T08:21:31.194Z,7.03
2022-09-11T08:22:33.648Z,9.05
2022-09-11T08:23:38.538Z,7.70
2022-09-11T08:24:41.517Z,7.47
2022-09-11T08:25:45.361Z,6.75
2022-09-11T08:26:49.287Z,6.90
2022-09-11T08:27:53.329Z,7.07
2022-09-11T08:29:00.247Z,7.30
2022-09-11T08:30:06.186Z,10.23
2022-09-11T08:31:08.443Z,6.57
2022-09-11T08:32:10.952Z,7.53
2022-09-11T08:33:14.276Z,9.82
2022-09-11T08:34:17.414Z,7.05
2022-09-11T08:35:20.523Z,8.32
2022-09-11T08:36:23.883Z,9.25
2022-09-11T08:37:27.404Z,8.00
2022-09-11T08:38:30.277Z,8.90
2022-09-11T08:39:32.495Z,8.55
2022-09-11T08:40:39.855Z,6.68
2022-09-11T08:41:53.691Z,8.27
2022-09-11T08:43:02.525Z,6.38
2022-09-11T08:44:27.346Z,7.90
2022-09-11T08:45:38.442Z,8.52
2022-09-11T08:46:48.562Z,7.47
2022-09-11T08:47:57.475Z,7.80
2022-09-11T08:49:30.530Z,9.32
2022-09-11T08:50:41.648Z,7.60
2022-09-11T08:51:49.055Z,6.55
2022-09-11T08:52:55.550Z,6.90
2022-09-11T08:54:02.566Z,7.80
2022-09-11T08:55:06.712Z,7.13
2022-09-11T08:56:15.651Z,8.18
2022-09-11T08:57:41.022Z,9.27
2022-09-11T09:00:07.689Z,8.20
2022-09-11T09:01:54.509Z,10.35
2022-09-11T09:03:09.186Z,7.93
2022-09-11T09:04:35.816Z,5.93
2022-09-11T09:06:08.791Z,9.00
2022-09-11T09:08:08.922Z,6.40
2022-09-11T09:09:13.719Z,7.25
2022-09-11T09:10:47.535Z,8.93
2022-09-11T09:12:21.041Z,8.13
2022-09-11T09:13:42.823Z,6.65
2022-09-11T09:15:00.049Z,8.73
2022-09-11T09:16:30.046Z,9.27
2022-09-11T09:17:43.527Z,8.60
2022-09-11T09:18:51.032Z,5.28
2022-09-11T09:20:06.259Z,7.40
2022-09-11T09:21:20.423Z,5.80
2022-09-11T09:22:54.853Z,6.45
2022-09-11T09:24:03.240Z,8.55
2022-09-11T09:25:11.534Z,7.10
2022-09-11T09:26:17.747Z,6.50
2022-09-11T09:27:30.502Z,8.80
2022-09-11T09:29:00.963Z,8.50
2022-09-11T09:30:07.626Z,6.35
2022-09-11T09:31:15.769Z,6.90
2022-09-11T09:32:30.011Z,7.75
2022-09-11T09:33:38.493Z,5.95
2022-09-11T09:34:46.006Z,6.50
2022-09-11T09:35:48.770Z,6.07
2022-09-11T09:37:18.827Z,5.78
2022-09-11T09:38:26.925Z,8.02
2022-09-11T09:39:32.263Z,7.72
2022-09-11T09:40:58.482Z,10.52
2022-09-11T09:42:08.637Z,8.98
2022-09-11T09:43:41.232Z,6.30
2022-09-11T09:45:21.557Z,6.20
2022-09-11T09:46:35.584Z,6.28
2022-09-11T09:47:44.790Z,5.85
2022-09-11T09:49:48.964Z,6.65
2022-09-11T09:50:51.898Z,7.07
2022-09-11T09:52:04.654Z,7.20
2022-09-11T09:53:33.279Z,6.00
2022-09-11T09:54:36.654Z,7.20
2022-09-11T09:55:40.587Z,7.28
2022-09-11T09:56:49.526Z,6.85
2022-09-11T09:57:51.466Z,8.30
2022-09-11T09:59:12.088Z,7.13
2022-09-11T10:00:19.978Z,8.35
2022-09-11T10:01:40.230Z,6.15
2022-09-11T10:02:49.330Z,8.40
2022-09-11T10:04:25.440Z,7.35
2022-09-11T10:05:34.964Z,6.25
2022-09-11T10:06:37.324Z,6.78
2022-09-11T10:07:57.308Z,5.95
2022-09-11T10:09:03.288Z,10.27
2022-09-11T10:10:06.171Z,7.13
2022-09-11T10:11:12.433Z,6.47
2022-09-11T10:12:24.502Z,7.97
2022-09-11T10:13:29.427Z,7.32
2022-09-11T10:14:51.071Z,8.93
2022-09-11T10:16:18.397Z,6.45
2022-09-11T10:17:23.008Z,7.55
2022-09-11T10:18:42.867Z,7.03
2022-09-11T10:19:45.210Z,8.88
2022-09-11T10:20:47.539Z,8.30
2022-09-11T10:21:49.546Z,5.85
2022-09-11T10:22:53.835Z,7.20
2022-09-11T10:24:01.152Z,6.72
2022-09-11T10:25:16.450Z,5.57
2022-09-11T10:26:29.926Z,6.32
2022-09-11T10:27:43.629Z,5.80
2022-09-11T10:28:47.009Z,8.63
2022-09-11T10:29:50.956Z,10.10
2022-09-11T10:30:55.968Z,6.82
2022-09-11T10:32:02.565Z,6.93
2022-09-11T10:33:16.466Z,8.63
2022-09-11T10:34:24.863Z,6.85
2022-09-11T10:35:29.610Z,8.27
2022-09-11T10:36:32.950Z,6.13
2022-09-11T10:37:35.027Z,5.93
2022-09-11T10:38:59.069Z,9.05
2022-09-11T10:40:19.250Z,7.00
2022-09-11T10:41:25.210Z,6.43
2022-09-11T10:42:29.482Z,8.13
2022-09-11T10:43:52.571Z,6.72
2022-09-11T10:45:11.319Z,7.35
2022-09-11T10:47:25.186Z,9.20
2022-09-11T10:48:27.212Z,7.50
2022-09-11T10:49:34.605Z,6.82
2022-09-11T10:50:36.704Z,7.97
2022-09-11T10:51:45.539Z,7.00
2022-09-11T10:52:58.366Z,6.25
2022-09-11T10:54:09.644Z,5.88
2022-09-11T10:55:15.759Z,9.70
2022-09-11T10:56:17.992Z,7.35
2022-09-11T10:57:30.757Z,11.75
2022-09-11T10:58:38.446Z,8.57
2022-09-11T11:00:21.596Z,7.82
2022-09-11T11:01:23.789Z,8.77
2022-09-11T11:02:36.428Z,7.68
2022-09-11T11:03:41.096Z,10.10
2022-09-11T11:04:43.221Z,6.97
2022-09-11T11:06:04.194Z,7.85
2022-09-11T11:07:40.826Z,7.55
2022-09-11T11:09:14.422Z,10.47
2022-09-11T11:10:24.967Z,11.68
2022-09-11T11:11:56.308Z,9.95
2022-09-11T11:13:28.983Z,8.88
2022-09-11T11:15:04.402Z,10.43
2022-09-11T11:16:18.831Z,9.68
2022-09-11T11:17:33.310Z,8.80
2022-09-11T11:18:44.340Z,8.70
2022-09-11T11:20:09.399Z,8.98
2022-09-11T11:21:19.417Z,8.07
2022-09-11T11:22:28.727Z,7.95
2022-09-11T11:23:51.250Z,10.02
2022-09-11T11:25:12.424Z,8.80
2022-09-11T11:26:36.989Z,8.55
2022-09-11T11:28:16.312Z,7.30
2022-09-11T11:29:18.972Z,9.60
2022-09-11T11:30:38.488Z,8.77
2022-09-11T11:31:49.795Z,8.88
2022-09-11T11:33:09.926Z,11.40
2022-09-11T11:34:27.789Z,9.43
2022-09-11T11:36:02.609Z,12.35
2022-09-11T11:37:20.208Z,8.25
2022-09-11T11:38:35.805Z,8.18
2022-09-11T11:39:52.848Z,7.07
2022-09-11T11:41:03.273Z,9.93
2022-09-11T11:42:30.255Z,7.07
2022-09-11T11:43:34.708Z,10.73
2022-09-11T11:45:00.495Z,7.45
2022-09-11T11:46:15.803Z,5.35
2022-09-11T11:47:26.549Z,8.70
2022-09-11T11:48:51.804Z,11.68
2022-09-11T11:50:18.570Z,6.88
2022-09-11T11:51:27.322Z,6.80
2022-09-11T11:52:32.004Z,5.97
2022-09-11T11:53:48.555Z,7.63
2022-09-11T11:55:20.913Z,7.53
2022-09-11T11:56:47.054Z,7.68
2022-09-11T11:58:10.996Z,8.20
2022-09-11T11:59:25.233Z,7.07
2022-09-11T12:00:29.354Z,13.45
2022-09-11T12:01:48.177Z,8.93
2022-09-11T12:04:14.088Z,6.78
2022-09-11T12:05:20.746Z,5.10
2022-09-11T12:06:22.720Z,6.28
2022-09-11T12:07:28.585Z,10.98
2022-09-11T12:08:30.651Z,7.35
2022-09-11T12:09:35.371Z,7.18
2022-09-11T12:10:40.250Z,7.18
2022-09-11T12:11:45.836Z,6.38
2022-09-11T12:12:53.903Z,7.80
2022-09-11T12:14:02.557Z,8.07
2022-09-11T12:15:10.389Z,11.57
2022-09-11T12:16:28.702Z,6.85
2022-09-11T12:17:33.482Z,5.57
2022-09-11T12:18:35.516Z,5.35
2022-09-11T12:19:37.515Z,6.32
2022-09-11T12:20:45.241Z,6.93
2022-09-11T12:21:53.053Z,6.00
2022-09-11T12:22:55.198Z,8.10
2022-09-11T12:23:57.160Z,5.55
2022-09-11T12:24:59.421Z,6.10
2022-09-11T12:26:16.843Z,6.70
2022-09-11T12:27:34.433Z,5.40
2022-09-11T12:28:38.069Z,6.15
2022-09-11T12:30:09.981Z,5.28
2022-09-11T12:31:14.827Z,5.45
2022-09-11T12:32:16.841Z,7.82
2022-09-11T12:33:47.790Z,5.90
2022-09-11T12:34:50.069Z,4.85
2022-09-11T12:35:53.763Z,5.93
2022-09-11T12:37:01.888Z,6.53
2022-09-11T12:38:06.827Z,5.45
2022-09-11T12:39:34.798Z,7.10
2022-09-11T12:40:49.925Z,8.97
2022-09-11T12:41:54.111Z,7.82
2022-09-11T12:43:00.001Z,5.47
2022-09-11T12:44:04.149Z,8.10
2022-09-11T12:45:30.663Z,7.60
2022-09-11T12:46:33.924Z,6.00
2022-09-11T12:47:42.796Z,5.25
2022-09-11T12:49:00.458Z,6.13
2022-09-11T12:50:11.510Z,4.90
2022-09-11T12:51:26.137Z,8.43
2022-09-11T12:52:40.586Z,6.47
2022-09-11T12:53:47.031Z,5.63
2022-09-11T12:54:51.446Z,6.43
2022-09-11T12:55:58.340Z,6.57
2022-09-11T12:57:36.421Z,7.43
2022-09-11T12:58:45.008Z,4.78
2022-09-11T12:59:54.906Z,8.48
2022-09-11T13:01:25.198Z,7.75
2022-09-11T13:02:42.228Z,6.57
2022-09-11T13:04:12.099Z,8.77
2022-09-11T13:05:27.538Z,5.18
2022-09-11T13:06:58.821Z,4.47
2022-09-11T13:08:18.669Z,7.72
2022-09-11T13:09:22.759Z,7.55
2022-09-11T13:10:40.657Z,6.60
2022-09-11T13:11:55.009Z,6.70
2022-09-11T13:13:37.626Z,5.93
2022-09-11T13:14:48.071Z,7.90
2022-09-11T13:15:52.597Z,5.88
2022-09-11T13:17:05.011Z,8.40
2022-09-11T13:18:31.169Z,5.80
2022-09-11T13:19:36.028Z,7.90
2022-09-11T13:20:38.219Z,4.25
2022-09-11T13:21:42.072Z,6.65
2022-09-11T13:22:47.555Z,6.30
2022-09-11T13:23:51.097Z,7.50
2022-09-11T13:25:07.287Z,6.25
2022-09-11T13:26:18.620Z,6.38
2022-09-11T13:27:28.845Z,6.07
2022-09-11T13:28:39.524Z,4.78
2022-09-11T13:29:43.026Z,4.93
2022-09-11T13:30:57.362Z,5.78
2022-09-11T13:32:05.462Z,8.05
2022-09-11T13:33:11.246Z,8.02
2022-09-11T13:34:18.920Z,6.18
2022-09-11T13:35:27.195Z,7.75
2022-09-11T13:36:34.735Z,6.30
2022-09-11T13:37:58.081Z,5.30
2022-09-11T13:39:03.005Z,5.97
2022-09-11T13:40:08.257Z,5.13
2022-09-11T13:41:20.285Z,5.30
2022-09-11T13:42:26.237Z,9.77
2022-09-11T13:43:50.574Z,7.05
2022-09-11T13:44:58.366Z,5.87
2022-09-11T13:46:16.574Z,6.38
2022-09-11T13:47:21.738Z,5.47
2022-09-11T13:48:24.181Z,6.80
2022-09-11T13:49:39.117Z,9.20
2022-09-11T13:50:41.515Z,9.57
2022-09-11T13:51:46.041Z,7.50
2022-09-11T13:52:49.563Z,4.85
2022-09-11T13:54:15.126Z,8.05
2022-09-11T13:55:23.681Z,6.25
2022-09-11T13:57:04.943Z,5.03
2022-09-11T13:58:24.485Z,5.93
2022-09-11T13:59:48.311Z,5.95
2022-09-11T14:00:52.808Z,4.68
2022-09-11T14:02:00.994Z,5.78
2022-09-11T14:03:03.080Z,7.70
2022-09-11T14:04:11.040Z,6.25
2022-09-11T14:05:28.587Z,6.63
2022-09-11T14:06:31.495Z,8.95
2022-09-11T14:07:41.499Z,6.57
2022-09-11T14:08:50.635Z,14.82
2022-09-11T14:10:01.411Z,7.57
2022-09-11T14:11:13.457Z,7.43
2022-09-11T14:12:15.751Z,7.43
2022-09-11T14:13:20.527Z,6.88
2022-09-11T14:14:28.351Z,7.00
2022-09-11T14:15:40.388Z,8.57
2022-09-11T14:16:52.018Z,5.72
2022-09-11T14:17:54.192Z,6.50
2022-09-11T14:19:02.746Z,9.65
2022-09-11T14:20:20.628Z,8.43
2022-09-11T14:21:26.726Z,6.18
2022-09-11T14:22:34.133Z,8.45
2022-09-11T14:23:43.731Z,6.20
2022-09-11T14:25:22.487Z,5.18
2022-09-11T14:26:39.971Z,5.25
2022-09-11T14:27:43.850Z,5.78
2022-09-11T14:29:00.338Z,9.90
2022-09-11T14:30:23.099Z,7.00
2022-09-11T14:31:39.053Z,9.38
2022-09-11T14:32:41.324Z,7.95
2022-09-11T14:33:43.809Z,10.05
2022-09-11T14:34:45.915Z,6.18
2022-09-11T14:35:50.562Z,9.68
2022-09-11T14:36:54.284Z,7.88
2022-09-11T14:37:58.057Z,5.68
2022-09-11T14:39:00.645Z,7.30
2022-09-11T14:40:08.304Z,18.33
2022-09-11T14:41:10.787Z,9.35
2022-09-11T14:42:26.197Z,7.18
2022-09-11T14:43:33.745Z,56.17
2022-09-11T14:44:39.525Z,7.40
2022-09-11T14:45:41.578Z,10.05
2022-09-11T14:46:44.221Z,7.30
2022-09-11T14:47:46.958Z,7.10
2022-09-11T14:48:49.345Z,4.85
2022-09-11T14:49:56.287Z,5.35
2022-09-11T14:50:58.924Z,9.13
2022-09-11T14:52:01.238Z,4.80
2022-09-11T14:53:03.435Z,8.75
2022-09-11T14:54:06.312Z,6.88
2022-09-11T14:55:14.924Z,8.02
2022-09-11T14:56:17.055Z,7.57
2022-09-11T14:57:23.074Z,8.10
2022-09-11T14:58:26.288Z,9.60
2022-09-11T14:59:30.482Z,6.28
2022-09-11T15:00:32.923Z,7.07
2022-09-11T15:01:37.936Z,8.18
2022-09-11T15:02:40.045Z,9.63
2022-09-11T15:03:43.264Z,8.27
2022-09-11T15:04:49.366Z,10.93
2022-09-11T15:05:57.274Z,8.40
2022-09-11T15:07:00.066Z,9.40
2022-09-11T15:08:03.639Z,11.77
2022-09-11T15:09:05.660Z,13.48
2022-09-11T15:10:07.952Z,11.25
2022-09-11T15:11:13.751Z,18.48
2022-09-11T15:12:16.380Z,14.38
2022-09-11T15:13:18.665Z,18.45